createdAt,value
2019-03-06T00:00:02.260Z,90.20
2019-03-06T00:02:29.672Z,90.30
2019-03-06T00:04:57.110Z,90.70
2019-03-06T00:07:24.561Z,90.40
2019-03-06T00:09:51.980Z,90.40
2019-03-06T00:12:19.481Z,90.20
2019-03-06T00:14:46.909Z,90.20
2019-03-06T00:17:14.345Z,90.10
2019-03-06T00:19:41.820Z,90.30
2019-03-06T00:22:09.257Z,90.10
2019-03-06T00:24:36.693Z,90.10
2019-03-06T00:27:04.341Z,90.00
2019-03-06T00:29:31.688Z,89.90
2019-03-06T00:31:59.124Z,89.80
2019-03-06T00:34:26.686Z,89.40
2019-03-06T00:36:54.128Z,89.60
2019-03-06T00:39:21.568Z,89.80
2019-03-06T00:41:51.232Z,89.90
2019-03-06T00:44:18.799Z,90.00
2019-03-06T00:46:46.236Z,90.00
2019-03-06T00:49:13.665Z,89.90
2019-03-06T00:51:41.121Z,90.00
2019-03-06T00:54:08.752Z,90.00
2019-03-06T00:56:36.216Z,90.00
2019-03-06T00:59:03.676Z,89.80
2019-03-06T01:01:31.105Z,90.00
2019-03-06T01:03:58.521Z,89.80
2019-03-06T01:06:26.732Z,89.60
2019-03-06T01:08:54.167Z,89.70
2019-03-06T01:11:21.592Z,89.60
2019-03-06T01:13:49.052Z,89.50
2019-03-06T01:16:16.513Z,89.30
2019-03-06T01:18:43.970Z,89.10
2019-03-06T01:21:11.696Z,89.00
2019-03-06T01:23:39.124Z,88.90
2019-03-06T01:26:06.572Z,89.10
2019-03-06T01:28:34.005Z,88.50
2019-03-06T01:31:01.467Z,88.70
2019-03-06T01:33:33.827Z,88.60
2019-03-06T01:36:26.807Z,88.80
2019-03-06T01:39:19.569Z,88.40
2019-03-06T01:42:09.529Z,88.20
2019-03-06T01:44:46.912Z,88.30
2019-03-06T01:47:14.367Z,88.40
2019-03-06T01:49:41.791Z,88.40
2019-03-06T01:52:09.213Z,89.00
2019-03-06T01:54:36.673Z,87.50
2019-03-06T01:57:04.272Z,88.30
2019-03-06T01:59:31.912Z,88.30
2019-03-06T02:01:59.349Z,89.40
2019-03-06T02:04:26.797Z,88.20
2019-03-06T02:06:54.239Z,88.10
2019-03-06T02:09:21.695Z,88.50
2019-03-06T02:11:49.172Z,88.00
2019-03-06T02:14:16.601Z,88.10
2019-03-06T02:16:44.071Z,88.20
2019-03-06T02:19:11.512Z,87.90
2019-03-06T02:21:38.916Z,87.70
2019-03-06T02:24:06.381Z,88.00
2019-03-06T02:26:34.013Z,87.80
2019-03-06T02:29:01.444Z,87.60
2019-03-06T02:31:28.869Z,87.90
2019-03-06T02:33:56.289Z,88.10
2019-03-06T02:36:23.909Z,88.40
2019-03-06T02:38:51.345Z,88.00
2019-03-06T02:41:18.979Z,87.70
2019-03-06T02:43:46.425Z,87.80
2019-03-06T02:46:13.869Z,88.00
2019-03-06T02:48:41.325Z,88.00
2019-03-06T02:51:09.370Z,87.90
2019-03-06T02:53:36.896Z,88.10
2019-03-06T02:56:04.632Z,88.20
2019-03-06T02:58:41.470Z,88.10
2019-03-06T03:01:33.945Z,87.80
2019-03-06T03:04:15.805Z,87.40
2019-03-06T03:06:50.157Z,87.20
2019-03-06T03:09:18.722Z,86.90
2019-03-06T03:11:46.137Z,86.90
2019-03-06T03:14:13.581Z,86.90
2019-03-06T03:16:41.022Z,86.70
2019-03-06T03:19:08.273Z,86.70
2019-03-06T03:21:35.160Z,86.20
2019-03-06T03:24:02.598Z,86.30
2019-03-06T03:26:30.046Z,86.60
2019-03-06T03:28:57.482Z,86.40
2019-03-06T03:31:24.905Z,87.10
2019-03-06T03:33:52.362Z,85.60
2019-03-06T03:36:19.799Z,85.70
2019-03-06T03:38:47.240Z,85.20
2019-03-06T03:41:14.662Z,85.40
2019-03-06T03:43:42.090Z,85.20
2019-03-06T03:46:09.336Z,85.00
2019-03-06T03:48:36.257Z,84.80
2019-03-06T03:51:03.851Z,84.50
2019-03-06T03:53:31.313Z,84.50
2019-03-06T03:55:58.649Z,84.40
2019-03-06T03:58:26.092Z,84.10
2019-03-06T04:00:53.546Z,83.60
2019-03-06T04:03:20.958Z,84.30
2019-03-06T04:05:48.530Z,84.10
2019-03-06T04:08:15.963Z,83.40
2019-03-06T04:10:44.295Z,82.50
2019-03-06T04:13:11.653Z,82.80
2019-03-06T04:15:39.102Z,83.00
2019-03-06T04:18:06.525Z,82.30
2019-03-06T04:20:33.996Z,81.70
2019-03-06T04:23:01.420Z,82.60
2019-03-06T04:25:28.848Z,82.50
2019-03-06T04:27:56.332Z,82.40
2019-03-06T04:30:23.748Z,82.40
2019-03-06T04:32:51.302Z,82.30
2019-03-06T04:35:18.881Z,81.80
2019-03-06T04:37:46.291Z,81.60
2019-03-06T04:40:14.118Z,81.50
2019-03-06T04:42:41.571Z,81.30
2019-03-06T04:45:08.982Z,81.60
2019-03-06T04:47:36.396Z,80.50
2019-03-06T04:50:04.558Z,80.70
2019-03-06T04:52:31.973Z,79.90
2019-03-06T04:54:59.512Z,80.00
2019-03-06T04:57:26.944Z,79.60
2019-03-06T04:59:54.381Z,79.80
2019-03-06T05:02:21.831Z,78.70
2019-03-06T05:04:49.305Z,79.50
2019-03-06T05:07:16.641Z,78.50
2019-03-06T05:09:44.060Z,78.20
2019-03-06T05:12:11.518Z,77.30
2019-03-06T05:14:38.960Z,77.80
2019-03-06T05:17:14.145Z,77.00
2019-03-06T05:19:41.880Z,76.80
2019-03-06T05:22:09.343Z,77.10
2019-03-06T05:24:36.761Z,76.70
2019-03-06T05:27:04.191Z,76.20
2019-03-06T05:29:31.636Z,76.50
2019-03-06T05:32:30.431Z,76.70
2019-03-06T05:35:00.250Z,76.10
2019-03-06T05:37:53.613Z,76.20
2019-03-06T05:40:21.062Z,75.80
2019-03-06T05:42:48.581Z,75.60
2019-03-06T05:45:16.010Z,74.80
2019-03-06T05:47:43.468Z,75.50
2019-03-06T05:50:10.821Z,74.60
2019-03-06T05:52:38.244Z,74.50
2019-03-06T05:55:05.500Z,74.40
2019-03-06T05:57:32.345Z,74.30
2019-03-06T05:59:59.784Z,73.50
2019-03-06T06:02:27.995Z,73.60
2019-03-06T06:04:55.760Z,73.00
2019-03-06T06:07:23.219Z,72.60
2019-03-06T06:09:50.646Z,72.60
2019-03-06T06:12:18.071Z,72.40
2019-03-06T06:14:45.503Z,71.70
2019-03-06T06:17:12.935Z,71.00
2019-03-06T06:19:40.373Z,70.90
2019-03-06T06:22:15.716Z,69.90
2019-03-06T06:24:43.239Z,70.30
2019-03-06T06:27:10.664Z,69.40
2019-03-06T06:29:38.108Z,69.40
2019-03-06T06:32:05.447Z,68.50
2019-03-06T06:34:32.884Z,68.80
2019-03-06T06:37:00.336Z,67.80
2019-03-06T06:39:27.779Z,68.70
2019-03-06T06:41:55.244Z,67.90
2019-03-06T06:44:22.964Z,67.40
2019-03-06T06:46:50.391Z,67.30
2019-03-06T06:49:17.965Z,68.00
2019-03-06T06:52:16.536Z,67.40
2019-03-06T06:55:21.496Z,66.90
2019-03-06T06:58:31.533Z,66.70
2019-03-06T07:02:12.752Z,67.00
2019-03-06T07:05:17.307Z,66.10
2019-03-06T07:08:05.377Z,66.70
2019-03-06T07:10:42.853Z,66.10
2019-03-06T07:13:16.068Z,66.30
2019-03-06T07:16:02.036Z,65.70
2019-03-06T07:18:40.783Z,65.80
2019-03-06T07:21:14.921Z,65.90
2019-03-06T07:23:54.436Z,66.30
2019-03-06T07:26:30.984Z,65.60
2019-03-06T07:29:05.962Z,65.50
2019-03-06T07:31:41.837Z,66.10
2019-03-06T07:34:35.048Z,66.10
2019-03-06T07:37:16.837Z,66.20
2019-03-06T07:39:57.133Z,65.90
2019-03-06T07:42:45.922Z,66.60
2019-03-06T07:46:05.737Z,66.90
2019-03-06T07:49:08.074Z,67.10
2019-03-06T07:52:04.108Z,66.00
2019-03-06T07:54:35.571Z,66.30
2019-03-06T07:57:22.536Z,65.10
2019-03-06T07:59:49.970Z,65.40
2019-03-06T08:02:20.501Z,64.80
2019-03-06T08:04:50.715Z,64.20
2019-03-06T08:07:18.159Z,63.90
2019-03-06T08:09:45.629Z,63.50
2019-03-06T08:12:20.405Z,63.10
2019-03-06T08:15:25.676Z,63.50
2019-03-06T08:18:11.310Z,63.50
2019-03-06T08:20:56.744Z,62.50
2019-03-06T08:23:43.692Z,62.60
2019-03-06T08:26:11.147Z,61.80
2019-03-06T08:28:38.580Z,63.40
2019-03-06T08:31:28.313Z,62.40
2019-03-06T08:33:55.740Z,63.20
2019-03-06T08:36:23.173Z,62.90
2019-03-06T08:38:50.616Z,62.70
2019-03-06T08:41:18.504Z,61.50
2019-03-06T08:43:46.010Z,61.50
2019-03-06T08:46:35.740Z,60.80
2019-03-06T08:49:31.104Z,62.00
2019-03-06T08:52:15.547Z,59.80
2019-03-06T08:55:05.489Z,59.40
2019-03-06T08:57:54.664Z,59.10
2019-03-06T09:00:53.729Z,59.60
2019-03-06T09:03:32.493Z,59.70
2019-03-06T09:06:19.447Z,60.20
2019-03-06T09:09:06.088Z,59.70
2019-03-06T09:11:43.702Z,60.80
2019-03-06T09:14:33.529Z,60.80
2019-03-06T09:17:07.457Z,61.30
2019-03-06T09:19:53.572Z,62.50
2019-03-06T09:22:46.071Z,63.90
2019-03-06T09:25:35.900Z,63.90
2019-03-06T09:28:31.940Z,64.80
2019-03-06T09:31:16.972Z,65.40
2019-03-06T09:33:52.028Z,64.10
2019-03-06T09:36:47.924Z,66.10
2019-03-06T09:39:23.086Z,66.10
2019-03-06T09:42:24.930Z,66.30
2019-03-06T09:45:26.980Z,65.70
2019-03-06T09:48:16.984Z,65.70
2019-03-06T09:50:57.362Z,65.00
2019-03-06T09:53:47.294Z,63.90
2019-03-06T09:56:36.992Z,64.20
2019-03-06T09:59:22.615Z,65.50
2019-03-06T10:02:18.404Z,66.50
2019-03-06T10:05:14.260Z,64.50
2019-03-06T10:07:52.458Z,67.10
2019-03-06T10:10:57.550Z,66.30
2019-03-06T10:13:26.080Z,67.20
2019-03-06T10:16:19.158Z,67.50
2019-03-06T10:19:04.652Z,68.10
2019-03-06T10:21:32.080Z,67.90
2019-03-06T10:23:59.516Z,68.60
2019-03-06T10:26:28.864Z,69.10
2019-03-06T10:28:56.500Z,67.80
2019-03-06T10:31:23.923Z,68.10
2019-03-06T10:33:51.375Z,66.30
2019-03-06T10:36:18.821Z,65.70
2019-03-06T10:38:46.256Z,66.20
2019-03-06T10:41:38.596Z,65.60
2019-03-06T10:44:06.024Z,66.20
2019-03-06T10:46:33.448Z,66.20
2019-03-06T10:49:00.892Z,66.40
2019-03-06T10:51:28.316Z,65.60
2019-03-06T10:53:55.772Z,64.80
2019-03-06T10:56:23.196Z,65.70
2019-03-06T10:58:50.728Z,66.30
2019-03-06T11:01:18.480Z,67.10
2019-03-06T11:04:04.677Z,67.80
2019-03-06T11:06:32.123Z,67.80
2019-03-06T11:08:59.561Z,66.20
2019-03-06T11:11:26.776Z,67.10
2019-03-06T11:13:53.716Z,68.10
2019-03-06T11:16:21.157Z,67.60
2019-03-06T11:18:48.561Z,66.90
2019-03-06T11:21:16.016Z,68.60
2019-03-06T11:23:43.480Z,68.60
2019-03-06T11:26:10.896Z,67.50
2019-03-06T11:28:38.374Z,66.10
2019-03-06T11:31:05.802Z,66.40
2019-03-06T11:33:33.244Z,67.20
2019-03-06T11:36:00.704Z,66.90
2019-03-06T11:38:28.124Z,67.30
2019-03-06T11:40:55.600Z,67.10
2019-03-06T11:43:23.020Z,67.60
2019-03-06T11:45:50.476Z,67.00
2019-03-06T11:48:17.916Z,67.30
2019-03-06T11:50:45.568Z,67.20
2019-03-06T11:53:12.994Z,67.40
2019-03-06T11:55:40.423Z,66.90
2019-03-06T11:58:08.578Z,66.00
2019-03-06T12:00:39.852Z,65.30
2019-03-06T12:03:07.297Z,64.40
2019-03-06T12:05:35.447Z,64.30
2019-03-06T12:08:05.460Z,64.70
2019-03-06T12:10:32.905Z,63.50
2019-03-06T12:13:00.392Z,62.50
2019-03-06T12:15:27.850Z,62.60
2019-03-06T12:17:55.289Z,61.70
2019-03-06T12:20:22.574Z,61.50
2019-03-06T12:22:49.475Z,61.70
2019-03-06T12:25:17.120Z,61.60
2019-03-06T12:27:44.564Z,61.50
2019-03-06T12:30:12.022Z,61.30
2019-03-06T12:32:39.444Z,60.80
2019-03-06T12:35:06.920Z,61.50
2019-03-06T12:37:34.352Z,61.10
2019-03-06T12:40:01.781Z,60.80
2019-03-06T12:42:29.227Z,60.60
2019-03-06T12:44:56.648Z,60.20
2019-03-06T12:47:24.097Z,60.10
2019-03-06T12:49:51.548Z,60.00
2019-03-06T12:52:18.976Z,59.20
2019-03-06T12:54:46.404Z,59.10
2019-03-06T12:57:14.049Z,59.10
2019-03-06T12:59:41.492Z,59.70
2019-03-06T13:02:08.925Z,60.00
2019-03-06T13:04:36.376Z,60.30
2019-03-06T13:07:03.805Z,60.40
2019-03-06T13:09:31.236Z,61.10
2019-03-06T13:11:58.689Z,62.20
2019-03-06T13:14:26.141Z,63.00
2019-03-06T13:16:53.573Z,64.10
2019-03-06T13:19:21.012Z,64.70
2019-03-06T13:21:48.474Z,67.30
2019-03-06T13:24:15.988Z,67.30
2019-03-06T13:26:43.407Z,68.00
2019-03-06T13:29:10.968Z,68.50
2019-03-06T13:31:38.385Z,68.80
2019-03-06T13:34:21.077Z,67.30
2019-03-06T13:36:48.529Z,67.90
2019-03-06T13:39:17.198Z,67.60
2019-03-06T13:41:44.809Z,66.80
2019-03-06T13:44:12.433Z,67.30
2019-03-06T13:46:39.856Z,69.90
2019-03-06T13:49:07.304Z,69.60
2019-03-06T13:51:34.729Z,69.60
2019-03-06T13:54:02.184Z,69.70
2019-03-06T13:56:29.605Z,69.60
2019-03-06T13:58:57.053Z,69.40
2019-03-06T14:01:24.694Z,69.30
2019-03-06T14:03:52.121Z,68.90
2019-03-06T14:06:19.557Z,69.40
2019-03-06T14:08:47.000Z,69.10
2019-03-06T14:11:14.444Z,69.50
2019-03-06T14:13:41.876Z,67.60
2019-03-06T14:16:09.352Z,68.40
2019-03-06T14:18:36.977Z,68.50
2019-03-06T14:21:04.431Z,68.30
2019-03-06T14:23:35.024Z,67.70
2019-03-06T14:26:01.059Z,67.90
2019-03-06T14:28:28.497Z,68.10
2019-03-06T14:30:55.944Z,68.60
2019-03-06T14:33:24.072Z,68.30
2019-03-06T14:35:52.084Z,68.40
2019-03-06T14:38:19.537Z,69.50
2019-03-06T14:40:48.433Z,69.50
2019-03-06T14:43:16.004Z,70.30
2019-03-06T14:45:43.448Z,70.80
2019-03-06T14:48:10.896Z,71.50
2019-03-06T14:50:38.376Z,72.00
2019-03-06T14:53:06.056Z,73.00
2019-03-06T14:55:33.792Z,74.40
2019-03-06T14:58:01.148Z,75.80
2019-03-06T15:00:28.585Z,76.10
2019-03-06T15:02:56.021Z,78.10
2019-03-06T15:05:23.460Z,78.40
2019-03-06T15:07:51.184Z,79.90
2019-03-06T15:10:18.633Z,78.60
2019-03-06T15:12:46.074Z,79.30
2019-03-06T15:15:13.789Z,79.20
2019-03-06T15:17:41.212Z,79.40
2019-03-06T15:20:11.374Z,79.30
2019-03-06T15:22:38.993Z,80.10
2019-03-06T15:25:09.816Z,80.60
2019-03-06T15:27:37.262Z,82.20
2019-03-06T15:30:05.349Z,82.80
2019-03-06T15:32:32.783Z,83.20
2019-03-06T15:35:00.275Z,83.70
2019-03-06T15:37:27.764Z,83.90
2019-03-06T15:39:55.376Z,84.80
2019-03-06T15:42:22.824Z,85.30
2019-03-06T15:44:50.249Z,85.10
2019-03-06T15:47:17.694Z,85.00
2019-03-06T15:49:45.117Z,84.50
2019-03-06T15:52:12.564Z,85.20
2019-03-06T15:54:40.013Z,84.70
2019-03-06T15:57:07.448Z,84.90
2019-03-06T15:59:34.876Z,85.00
2019-03-06T16:02:02.341Z,86.10
2019-03-06T16:04:29.767Z,84.60
2019-03-06T16:06:57.199Z,85.10
2019-03-06T16:09:24.658Z,84.10
2019-03-06T16:11:53.349Z,84.70
2019-03-06T16:14:20.721Z,84.00
2019-03-06T16:16:48.163Z,84.00
2019-03-06T16:19:15.596Z,83.70
2019-03-06T16:21:43.045Z,83.70
2019-03-06T16:24:10.491Z,84.20
2019-03-06T16:26:37.976Z,84.20
2019-03-06T16:29:05.658Z,83.80
2019-03-06T16:31:33.229Z,83.70
2019-03-06T16:34:01.008Z,84.10
2019-03-06T16:36:28.652Z,83.50
2019-03-06T16:38:56.660Z,84.00
2019-03-06T16:41:24.284Z,83.70
2019-03-06T16:43:52.068Z,83.50
2019-03-06T16:46:20.140Z,84.20
2019-03-06T16:48:47.808Z,83.80
2019-03-06T16:51:15.331Z,83.20
2019-03-06T16:53:43.108Z,83.90
2019-03-06T16:56:10.944Z,83.40
2019-03-06T16:58:38.747Z,83.40
2019-03-06T17:01:07.128Z,83.70
2019-03-06T17:03:35.117Z,83.20
2019-03-06T17:06:03.356Z,83.30
2019-03-06T17:08:31.280Z,83.40
2019-03-06T17:10:59.116Z,83.50
2019-03-06T17:13:26.702Z,84.00
2019-03-06T17:15:54.994Z,84.00
2019-03-06T17:18:22.958Z,85.00
2019-03-06T17:20:50.628Z,84.50
2019-03-06T17:23:18.953Z,84.70
2019-03-06T17:25:46.737Z,85.10
2019-03-06T17:28:14.516Z,85.20
2019-03-06T17:30:42.541Z,85.20
2019-03-06T17:33:10.328Z,85.40
2019-03-06T17:35:38.332Z,85.10
2019-03-06T17:38:06.277Z,85.30
2019-03-06T17:40:33.744Z,85.40
2019-03-06T17:43:01.162Z,85.10
2019-03-06T17:45:28.592Z,85.40
2019-03-06T17:47:56.033Z,85.80
2019-03-06T17:50:23.517Z,85.60
2019-03-06T17:52:50.986Z,85.40
2019-03-06T17:55:18.732Z,86.20
2019-03-06T17:57:46.175Z,85.80
2019-03-06T18:00:17.128Z,86.10
2019-03-06T18:02:43.912Z,85.90
2019-03-06T18:05:11.541Z,86.20
2019-03-06T18:07:38.968Z,86.10
2019-03-06T18:10:09.756Z,86.20
2019-03-06T18:12:37.200Z,85.90
2019-03-06T18:15:05.236Z,85.90
2019-03-06T18:17:32.669Z,86.30
2019-03-06T18:20:00.357Z,86.30
2019-03-06T18:22:27.966Z,86.50
2019-03-06T18:24:55.621Z,86.20
2019-03-06T18:27:26.540Z,86.30
2019-03-06T18:29:52.952Z,86.40
2019-03-06T18:32:20.392Z,86.80
2019-03-06T18:34:48.432Z,87.40
2019-03-06T18:37:16.230Z,87.50
2019-03-06T18:39:44.128Z,87.90
2019-03-06T18:42:12.058Z,87.90
2019-03-06T18:44:39.572Z,88.10
2019-03-06T18:47:07.068Z,88.60
2019-03-06T18:49:34.652Z,89.80
2019-03-06T18:52:02.151Z,89.90
2019-03-06T18:54:30.039Z,89.50
2019-03-06T18:56:57.479Z,90.10
2019-03-06T18:59:24.912Z,90.10
2019-03-06T19:01:52.411Z,90.10
2019-03-06T19:04:19.805Z,90.20
2019-03-06T19:06:47.240Z,90.20
2019-03-06T19:09:14.684Z,90.10
2019-03-06T19:11:42.328Z,90.20
2019-03-06T19:14:09.756Z,90.60
2019-03-06T19:16:37.192Z,90.30
2019-03-06T19:19:04.648Z,90.30
2019-03-06T19:21:32.070Z,90.30
2019-03-06T19:23:59.492Z,90.30
2019-03-06T19:26:26.725Z,90.20
2019-03-06T19:28:54.451Z,90.20
2019-03-06T19:31:21.877Z,90.20
2019-03-06T19:33:49.355Z,90.20
2019-03-06T19:36:16.775Z,90.20
2019-03-06T19:38:44.209Z,90.30
2019-03-06T19:41:11.653Z,90.60
2019-03-06T19:43:39.088Z,90.40
2019-03-06T19:46:06.898Z,90.20
2019-03-06T19:48:34.803Z,90.20
2019-03-06T19:51:02.454Z,90.40
2019-03-06T19:53:30.302Z,90.30
2019-03-06T19:55:58.132Z,90.20
2019-03-06T19:58:26.059Z,90.10
2019-03-06T20:00:53.730Z,90.10
2019-03-06T20:03:21.581Z,90.10
2019-03-06T20:05:49.639Z,90.40
2019-03-06T20:08:17.327Z,90.30
2019-03-06T20:10:45.128Z,90.30
2019-03-06T20:13:13.194Z,90.30
2019-03-06T20:15:40.909Z,90.10
2019-03-06T20:18:08.768Z,90.10
2019-03-06T20:20:36.361Z,90.20
2019-03-06T20:23:04.204Z,90.10
2019-03-06T20:25:32.014Z,90.10
2019-03-06T20:27:59.463Z,90.30
2019-03-06T20:30:26.904Z,90.30
2019-03-06T20:32:54.367Z,90.20
2019-03-06T20:35:21.970Z,90.20
2019-03-06T20:37:49.469Z,90.20
2019-03-06T20:40:17.132Z,90.40
2019-03-06T20:42:44.443Z,90.40
2019-03-06T20:45:11.761Z,90.40
2019-03-06T20:47:39.253Z,90.80
2019-03-06T20:50:06.821Z,90.40
2019-03-06T20:52:34.249Z,90.70
2019-03-06T20:55:01.798Z,90.70
2019-03-06T20:57:29.236Z,90.40
2019-03-06T20:59:56.708Z,90.40
2019-03-06T21:02:24.529Z,90.50
2019-03-06T21:04:52.348Z,90.40
2019-03-06T21:07:20.183Z,90.20
2019-03-06T21:09:47.667Z,90.30
2019-03-06T21:12:15.492Z,90.30
2019-03-06T21:14:42.960Z,90.60
2019-03-06T21:17:10.458Z,90.60
2019-03-06T21:19:37.873Z,90.70
2019-03-06T21:22:05.639Z,90.80
2019-03-06T21:24:33.087Z,91.40
2019-03-06T21:27:02.622Z,90.80
2019-03-06T21:29:29.829Z,90.70
2019-03-06T21:31:57.280Z,90.70
2019-03-06T21:34:24.780Z,90.70
2019-03-06T21:36:52.260Z,90.80
2019-03-06T21:39:24.213Z,90.40
2019-03-06T21:41:51.652Z,90.60
2019-03-06T21:44:19.253Z,90.50
2019-03-06T21:46:46.745Z,90.50
2019-03-06T21:49:14.197Z,90.30
2019-03-06T21:51:41.661Z,90.30
2019-03-06T21:54:09.159Z,90.60
2019-03-06T21:56:36.712Z,90.90
2019-03-06T21:59:04.175Z,90.70
2019-03-06T22:01:31.443Z,90.70
2019-03-06T22:03:58.350Z,90.60
2019-03-06T22:06:25.756Z,90.40
2019-03-06T22:08:53.208Z,90.40
2019-03-06T22:11:20.740Z,90.30
2019-03-06T22:13:48.386Z,90.40
2019-03-06T22:16:15.945Z,90.20
2019-03-06T22:18:43.383Z,90.10
2019-03-06T22:21:10.830Z,90.10
2019-03-06T22:23:38.291Z,89.90
2019-03-06T22:26:07.355Z,89.90
2019-03-06T22:28:34.693Z,90.00
2019-03-06T22:31:02.430Z,90.00
2019-03-06T22:33:29.884Z,89.90
2019-03-06T22:35:57.327Z,89.60
2019-03-06T22:38:24.768Z,89.00
2019-03-06T22:40:52.230Z,89.80
2019-03-06T22:43:19.648Z,89.30
2019-03-06T22:45:47.314Z,88.90
2019-03-06T22:48:15.057Z,88.60
2019-03-06T22:50:42.477Z,88.70
2019-03-06T22:53:09.917Z,88.30
2019-03-06T22:55:37.379Z,88.20
2019-03-06T22:58:04.815Z,88.60
2019-03-06T23:00:57.427Z,88.90
2019-03-06T23:03:26.211Z,89.10
2019-03-06T23:05:53.858Z,89.00
2019-03-06T23:08:21.314Z,89.20
2019-03-06T23:10:48.749Z,89.10
2019-03-06T23:13:16.223Z,89.10
2019-03-06T23:15:43.756Z,89.20
2019-03-06T23:18:11.211Z,89.60
2019-03-06T23:20:38.444Z,89.70
2019-03-06T23:23:05.341Z,90.10
2019-03-06T23:25:32.776Z,89.40
2019-03-06T23:28:00.233Z,89.50
2019-03-06T23:30:27.978Z,89.20
2019-03-06T23:32:55.407Z,89.20
2019-03-06T23:35:22.864Z,89.60
2019-03-06T23:37:50.294Z,89.80
2019-03-06T23:40:17.784Z,89.70
2019-03-06T23:42:45.238Z,89.80
2019-03-06T23:45:12.673Z,89.60
2019-03-06T23:47:40.411Z,89.70
2019-03-06T23:50:07.844Z,90.00
2019-03-06T23:52:55.393Z,90.10
2019-03-06T23:55:22.852Z,90.50
2019-03-06T23:57:50.273Z,90.60
